Have a Safe July 4th! 

Flight Track Log - Related Links

Times and Time Zones

All times are in EDT time to prevent confusion due to time zone crossing. See the N51EM flight status page for this flight to view local times or setup timezone preferences in your user account.

Time Position Orientation Groundspeed Altitude Reporting Facility
EDT Latitude Longitude Course Direction KTS MPH feet Rate Location/Type
Wed 03:35:16 PM 40.5989 -75.5350 301° West 265 305 3,700  Level New York Center
Wed 03:36:16 PM 40.6314 -75.6058 301° West 214 246 7,400 2,750 Climbing New York Center
Wed 03:37:16 PM 40.7083 -75.6056 360° North 190 219 9,200 1,750 Climbing New York Center
Wed 03:38:16 PM 40.7903 -75.5922 North 250 288 10,900 1,500 Climbing New York Center
Wed 03:39:16 PM 40.8742 -75.5764 North 316 364 12,200 2,200 Climbing New York Center
Wed 03:40:16 PM 40.9772 -75.5561 North 333 383 15,300 2,350 Climbing New York Center
Wed 03:41:16 PM 41.0633 -75.5400 North 333 383 16,900 800 Climbing New York Center
Wed 03:42:16 PM 41.1578 -75.5192 North 338 389 16,900 1,333 Level New York Center
Wed 03:44:16 PM 41.3764 -75.4711 North 439 505 20,900 1,467 Climbing New York Center
Wed 03:45:16 PM 41.4897 -75.4458 North 428 493 21,300 1,200 Climbing New York Center
Wed 03:46:16 PM 41.5819 -75.3772 29° Northeast 389 448 23,300 1,778 Climbing New York Center
Wed 03:48:25 PM 41.7931 -75.3472 North 387 445 26,900 1,875 Climbing Boston Center
Wed 03:49:28 PM 41.9172 -75.3336 North 377 434 29,300 1,707 Climbing Boston Center
Wed 03:50:28 PM 42.0167 -75.3236 North 362 417 30,400 878 Climbing Boston Center
Wed 03:51:31 PM 42.1042 -75.2311 38° Northeast 423 487 31,100 629 Climbing Boston Center
Wed 03:52:32 PM 42.1628 -75.1064 58° Northeast 433 498 31,700 639 Climbing Boston Center
Wed 03:53:33 PM 42.2403 -74.9339 59° Northeast 446 513 32,400 639 Climbing Boston Center
Wed 03:54:34 PM 42.3072 -74.7872 58° Northeast 463 533 33,000 590 Climbing Boston Center
Wed 03:55:35 PM 42.3769 -74.6383 58° Northeast 501 577 33,600 532 Climbing Boston Center
Wed 03:56:38 PM 42.4447 -74.4831 59° Northeast 509 586 34,100 537 Climbing Boston Center
Wed 03:57:38 PM 42.5133 -74.3272 59° Northeast 492 566 34,700 595 Climbing Boston Center
Wed 03:58:39 PM 42.5856 -74.1692 58° Northeast 490 564 35,300 528 Climbing Boston Center
Wed 03:59:43 PM 42.6569 -74.0081 59° Northeast 495 570 35,800 532 Climbing Boston Center
Wed 04:00:43 PM 42.7275 -73.8489 59° Northeast 493 567 36,400 550 Climbing Boston Center
Wed 04:01:43 PM 42.7986 -73.6922 58° Northeast 488 562 36,900 545 Climbing Boston Center
Wed 04:02:44 PM 42.8700 -73.5358 58° Northeast 485 558 37,500 48 Climbing Boston Center
Wed 04:03:48 PM 42.9558 -73.3469 58° Northeast 484 557 37,000 -912 Descending Boston Center
Wed 04:04:49 PM 43.0322 -73.1817 58° Northeast 500 575 35,600 -934 Descending Boston Center
Wed 04:05:50 PM 43.1117 -73.0028 59° Northeast 534 615 35,100 -248 Descending Boston Center
Wed 04:06:50 PM 43.1908 -72.8294 58° Northeast 537 618 35,100 -50 Level Boston Center
Wed 04:07:51 PM 43.2653 -72.6578 59° Northeast 529 609 35,000 -48 Descending Boston Center
Wed 04:08:55 PM 43.3397 -72.4967 58° Northeast 509 586 35,000  Level Boston Center
Wed 04:09:55 PM 43.4094 -72.3342 59° Northeast 499 574 35,000  Level Boston Center
Wed 04:10:57 PM 43.4789 -72.1758 59° Northeast 488 562 35,000  Level Boston Center
Wed 04:11:57 PM 43.5461 -72.0233 59° Northeast 474 545 35,000  Level Boston Center
Wed 04:13:01 PM 43.6183 -71.8900 53° Northeast 456 525 35,000  Level Boston Center
Wed 04:14:02 PM 43.7131 -71.9372 340° North 338 389 35,000  Level Boston Center
Wed 04:15:02 PM 43.7119 -72.0342 269° West 263 303 35,000 -341 Level Boston Center
Wed 04:16:05 PM 43.6739 -72.1242 240° Southwest 287 330 34,300 -726 Descending Boston Center
Wed 04:17:06 PM 43.6244 -72.2144 233° Southwest 297 342 33,500 -836 Descending Boston Center
Wed 04:18:07 PM 43.5739 -72.3083 233° Southwest 303 349 32,600 -1,190 Descending Boston Center
Wed 04:19:07 PM 43.5225 -72.4033 233° Southwest 309 356 31,100 -1,339 Descending Boston Center
Wed 04:20:08 PM 43.4692 -72.5028 234° Southwest 322 371 29,900 -1,143 Descending Boston Center
Wed 04:21:13 PM 43.4161 -72.6006 233° Southwest 321 369 28,700 -1,296 Descending Boston Center
Wed 04:22:13 PM 43.3533 -72.7150 233° Southwest 317 365 27,200 -1,388 Descending Boston Center
Wed 04:23:14 PM 43.3003 -72.8119 233° Southwest 318 366 25,900 -1,289 Descending Boston Center
Wed 04:24:14 PM 43.2469 -72.9089 233° Southwest 319 367 24,600 -919 Descending Boston Center
Wed 04:25:18 PM 43.1908 -73.0125 233° Southwest 319 367 24,000 -425 Descending Boston Center
Wed 04:26:21 PM 43.1436 -73.0992 233° Southwest 313 360 23,700 -645 Descending Boston Center
Wed 04:27:19 PM 43.0906 -73.1936 232° Southwest 314 361 22,700 -992 Descending Boston Center
Wed 04:28:22 PM 43.0344 -73.2936 233° Southwest 328 377 21,700 -1,065 Descending Boston Center
Wed 04:29:23 PM 42.9436 -73.3758 214° Southwest 344 396 20,500 -1,180 Descending Boston Center
Wed 04:30:24 PM 42.8550 -73.4133 197° South 336 387 19,300 -1,339 Descending Boston Center
Wed 04:31:24 PM 42.7606 -73.4564 199° South 335 386 17,800 -1,317 Descending Boston Center
Wed 04:32:27 PM 42.6742 -73.4942 198° South 327 376 16,600 -1,113 Descending Boston Center
Wed 04:33:28 PM 42.5881 -73.5300 197° South 326 375 15,500 -1,140 Descending Boston Center
Wed 04:34:28 PM 42.4956 -73.5675 197° South 321 369 14,300 -1,140 Descending Boston Center
Wed 04:35:29 PM 42.4103 -73.6017 196° South 320 368 13,200 -1,104 Descending Boston Center
Wed 04:36:33 PM 42.3222 -73.6381 197° South 325 374 12,000 -1,104 Descending Boston Center
Wed 04:37:34 PM 42.2350 -73.6744 197° South 328 377 10,900 -793 Descending Boston Center
Wed 04:38:34 PM 42.1411 -73.7122 197° South 330 380 10,400 -1,122 Descending Boston Center
Wed 04:39:37 PM 42.0500 -73.7511 198° South 344 396 8,600 -1,770 Descending Boston Center
Wed 04:40:36 PM 41.9664 -73.7847 197° South 311 358 6,800 -1,884 Descending Boston Center
Wed 04:41:38 PM 41.8897 -73.8172 198° South 269 310 4,800 -964 Descending Boston Center
Wed 04:43:49 PM 41.7500 -73.8167 180° South 228 262 3,700 -565 Descending New York TRACON
Wed 04:44:49 PM 41.6833 -73.8000 169° South 231 266 3,000 -350 Descending New York TRACON
Wed 04:45:49 PM 41.6167 -73.8000 180° South 220 253 3,000  Level New York TRACON
Wed 04:46:49 PM 41.5667 -73.8167 194° South 225 259 3,000 -200 Level New York TRACON
Wed 04:47:49 PM 41.5500 -73.8833 252° West 196 226 2,600 -300 Descending New York TRACON
Wed 04:48:49 PM 41.5333 -73.9500 252° West 194 223 2,400 -450 Descending New York TRACON
Wed 04:49:49 PM 41.5167 -74.0167 252° West 194 223 1,700 -750 Descending New York TRACON
Wed 04:50:49 PM 41.5167 -74.0667 270° West 134 154 900 -800 Descending New York TRACON
Wed 04:52:00 PM 41.5000 -74.1000 254° West  Level FlightAware Approximate
Wed 04:59:00 PM 41.8017 -73.3709 254° West  Level Estimated
Wed 05:00:00 PM 41.8444 -73.2662 254° West  Level Estimated
Wed 05:01:00 PM 41.8870 -73.1613 254° West  Level Estimated
Wed 05:02:00 PM 41.9295 -73.0564 254° West  Level Estimated
Wed 05:03:00 PM 41.9720 -72.9512 254° West  Level Estimated
Wed 05:04:00 PM 42.0143 -72.8460 254° West  Level Estimated
Wed 05:05:00 PM 42.0565 -72.7405 254° West  Level Estimated
Wed 05:06:00 PM 42.0987 -72.6350 254° West  Level Estimated
Wed 05:07:00 PM 42.1407 -72.5293 254° West  Level Estimated

Login

Don't have an account? Register now (free) for customized features, flight alerts, and more!